Ketchikan, AK

11:12 PM AKDT on September 02, 2014 (GMT -0800)
Ketchikan International | Change Station
CLOSE
Current Station
Airport
Location: Ketchikan,
Elevation: 95 ft
Nearby Weather Stations

Elev 95 ft 55.36 °N, 131.71 °W | Updated 19 minutes ago

Clear
Clear
55 °F
Feels Like 55 °F
N
6
Wind Variable Wind from NNW

Today
High -- | Low -- °F
--% Chance of Precip.
Yesterday
High -- | Low -- °F
Precip. -- in
5:54 AM 7:36 PM
First Quarter, 59% visible
Pressure 30.09 in
Visibility 10.0 miles
Clouds Clear
Dew Point 48 °F
Humidity 77%
Rainfall 0.00 in
Snow Depth Not available.
UV 0 out of 12
Pollen Not available.
Air Quality Not available.
Flu Activity Not available.
METAR PAKT 030653Z AUTO 33005KT 10SM CLR 13/09 A3009 RMK AO2 SLP189 T01280089 TSNO

More Conditions Fewer Conditions

Pressure 30.09 in
Visibility 10.0 miles
Clouds Clear
Dew Point 48 °F
Humidity 77%
Rainfall 0.00 in
Snow Depth Not available.
UV 0 out of 12
Pollen Not available.
Air Quality Not available.
Flu Activity Not available.
METAR PAKT 030653Z AUTO 33005KT 10SM CLR 13/09 A3009 RMK AO2 SLP189 T01280089 TSNO

More Conditions Fewer Conditions

10-Day Weather Forecast

Almanac

Astronomy

Sep. 02, 2014 Rise Set
Actual Time 5:54 AM AKDT 7:36 PM AKDT
Civil Twilight 5:15 AM AKDT 8:15 PM AKDT
Nautical Twilight 4:27 AM AKDT 9:02 PM AKDT
Astronomical Twilight 3:32 AM AKDT 9:57 PM AKDT
Moon 2:59 PM AKDT (9/2) 11:23 PM AKDT (9/2)
Length of Visible Light 14h 59m
Length of Day
13h 42m
Tomorrow will be 4m 27s shorter.
First Quarter, 59% of the Moon is Illuminated
Sep 3
First Quarter
Sep 8
Full
Sep 15
Last Quarter
Sep 24
New
Oct 1
First Quarter

Community

WunderPhotos

Upload Photos

1,749,888 photos uploaded!

Nearby

Snow Depth

Station Depth Elevation
Long Lake 0 in 820 ft
Upper Tsaina River 0 in 1750 ft
Moraine 0 in 2100 ft
Grouse Creek Divide 0 in 700 ft
Grandview 0 in 1100 ft

Earthquake Activity

City Distance Mag. Time & Date
No recent earthquake activity has been reported nearby.
Minimum magnitude displayed is 2.5.

Coastal Water Temperatures

Place Temperature
No Stations Reporting

Nearby Weather Stations